Time,TemperatureF,DewpointF,PressureIn,WindDirection,WindDirectionDegrees,WindSpeedMPH,WindSpeedGustMPH,Humidity,HourlyPrecipIn,Conditions,Clouds,dailyrainin,SoftwareType,DateUTC
2013-01-26 00:00:00,13.6,13.6,-100.00,North,-999,-999.0,-999.0,99,-99.99,,,-99.99,,2013-01-26 05:00:00,
2013-01-26 00:02:00,13.6,13.6,-100.00,North,-999,-999.0,-999.0,99,-99.99,,,-99.99,,2013-01-26 05:02:00,
2013-01-26 00:07:00,13.5,13.3,-100.00,North,-999,-999.0,-999.0,99,-99.99,,,-99.99,,2013-01-26 05:07:00,
2013-01-26 00:10:00,13.3,13.0,-100.00,North,-999,-999.0,-999.0,99,-99.99,,,-99.99,,2013-01-26 05:10:00,
2013-01-26 00:15:00,13.1,12.6,-100.00,North,-999,-999.0,-999.0,98,-99.99,,,-99.99,,2013-01-26 05:15:00,
2013-01-26 00:20:00,12.7,11.9,-100.00,North,-999,-999.0,-999.0,97,-99.99,,,-99.99,,2013-01-26 05:20:00,
2013-01-26 00:22:00,12.7,11.9,-100.00,North,-999,-999.0,-999.0,97,-99.99,,,-99.99,,2013-01-26 05:22:00,
2013-01-26 00:27:00,12.4,11.3,-100.00,North,-999,-999.0,-999.0,97,-99.99,,,-99.99,,2013-01-26 05:27:00,
2013-01-26 00:32:00,12.2,11.1,-100.00,North,-999,-999.0,-999.0,97,-99.99,,,-99.99,,2013-01-26 05:32:00,
2013-01-26 00:37:00,12.0,11.2,-100.00,North,-999,-999.0,-999.0,97,-99.99,,,-99.99,,2013-01-26 05:37:00,
2013-01-26 00:42:00,11.8,10.5,-100.00,North,-999,-999.0,-999.0,96,-99.99,,,-99.99,,2013-01-26 05:42:00,
2013-01-26 00:47:00,11.5,9.7,-100.00,North,-999,-999.0,-999.0,95,-99.99,,,-99.99,,2013-01-26 05:47:00,
2013-01-26 00:52:00,11.3,9.4,-100.00,North,-999,-999.0,-999.0,94,-99.99,,,-99.99,,2013-01-26 05:52:00,
2013-01-26 00:57:00,11.1,9.0,-100.00,North,-999,-999.0,-999.0,94,-99.99,,,-99.99,,2013-01-26 05:57:00,
2013-01-26 01:02:00,10.9,8.7,-100.00,North,-999,-999.0,-999.0,93,-99.99,,,-99.99,,2013-01-26 06:02:00,
2013-01-26 01:07:00,10.8,8.2,-100.00,North,-999,-999.0,-999.0,92,-99.99,,,-99.99,,2013-01-26 06:07:00,
2013-01-26 01:12:00,10.6,8.1,-100.00,North,-999,-999.0,-999.0,93,-99.99,,,-99.99,,2013-01-26 06:12:00,
2013-01-26 01:17:00,10.4,8.1,-100.00,North,-999,-999.0,-999.0,93,-99.99,,,-99.99,,2013-01-26 06:17:00,
2013-01-26 01:22:00,10.4,8.3,-100.00,North,-999,-999.0,-999.0,94,-99.99,,,-99.99,,2013-01-26 06:22:00,
2013-01-26 01:28:00,10.2,8.0,-100.00,North,-999,-999.0,-999.0,93,-99.99,,,-99.99,,2013-01-26 06:28:00,
2013-01-26 01:33:00,10.0,7.8,-100.00,North,-999,-999.0,-999.0,93,-99.99,,,-99.99,,2013-01-26 06:33:00,
2013-01-26 01:38:00,9.9,7.7,-100.00,North,-999,-999.0,-999.0,93,-99.99,,,-99.99,,2013-01-26 06:38:00,
2013-01-26 01:43:00,9.7,7.3,-100.00,North,-999,-999.0,-999.0,93,-99.99,,,-99.99,,2013-01-26 06:43:00,
2013-01-26 01:48:00,9.5,7.2,-100.00,North,-999,-999.0,-999.0,93,-99.99,,,-99.99,,2013-01-26 06:48:00,
2013-01-26 01:53:00,9.5,7.2,-100.00,North,-999,-999.0,-999.0,93,-99.99,,,-99.99,,2013-01-26 06:53:00,
2013-01-26 01:58:00,9.3,7.1,-100.00,North,-999,-999.0,-999.0,93,-99.99,,,-99.99,,2013-01-26 06:58:00,
2013-01-26 02:03:00,9.3,6.9,-100.00,North,-999,-999.0,-999.0,93,-99.99,,,-99.99,,2013-01-26 07:03:00,
2013-01-26 02:08:00,9.1,6.7,-100.00,North,-999,-999.0,-999.0,93,-99.99,,,-99.99,,2013-01-26 07:08:00,
2013-01-26 02:13:00,9.0,6.3,-100.00,North,-999,-999.0,-999.0,92,-99.99,,,-99.99,,2013-01-26 07:13:00,
2013-01-26 02:18:00,8.8,6.2,-100.00,North,-999,-999.0,-999.0,92,-99.99,,,-99.99,,2013-01-26 07:18:00,
2013-01-26 02:23:00,8.6,6.1,-100.00,North,-999,-999.0,-999.0,93,-99.99,,,-99.99,,2013-01-26 07:23:00,
2013-01-26 02:28:00,8.6,6.3,-100.00,North,-999,-999.0,-999.0,93,-99.99,,,-99.99,,2013-01-26 07:28:00,
2013-01-26 02:33:00,8.4,6.6,-100.00,North,-999,-999.0,-999.0,95,-99.99,,,-99.99,,2013-01-26 07:33:00,
2013-01-26 02:38:00,8.4,7.2,-100.00,North,-999,-999.0,-999.0,96,-99.99,,,-99.99,,2013-01-26 07:38:00,
2013-01-26 02:43:00,8.4,6.4,-100.00,North,-999,-999.0,-999.0,94,-99.99,,,-99.99,,2013-01-26 07:43:00,
2013-01-26 02:48:00,8.2,5.5,-100.00,North,-999,-999.0,-999.0,92,-99.99,,,-99.99,,2013-01-26 07:48:00,
2013-01-26 02:53:00,8.1,5.5,-100.00,North,-999,-999.0,-999.0,93,-99.99,,,-99.99,,2013-01-26 07:53:00,
2013-01-26 02:58:00,7.9,5.7,-100.00,North,-999,-999.0,-999.0,93,-99.99,,,-99.99,,2013-01-26 07:58:00,
2013-01-26 03:03:00,7.9,5.7,-100.00,North,-999,-999.0,-999.0,93,-99.99,,,-99.99,,2013-01-26 08:03:00,
2013-01-26 03:08:00,7.7,5.5,-100.00,North,-999,-999.0,-999.0,93,-99.99,,,-99.99,,2013-01-26 08:08:00,
2013-01-26 03:13:00,7.5,5.0,-100.00,North,-999,-999.0,-999.0,93,-99.99,,,-99.99,,2013-01-26 08:13:00,
2013-01-26 03:18:00,7.5,4.5,-100.00,North,-999,-999.0,-999.0,91,-99.99,,,-99.99,,2013-01-26 08:18:00,
2013-01-26 03:23:00,7.3,4.6,-100.00,North,-999,-999.0,-999.0,92,-99.99,,,-99.99,,2013-01-26 08:23:00,
2013-01-26 03:28:00,7.2,4.5,-100.00,North,-999,-999.0,-999.0,92,-99.99,,,-99.99,,2013-01-26 08:28:00,
2013-01-26 03:33:00,7.2,5.0,-100.00,North,-999,-999.0,-999.0,93,-99.99,,,-99.99,,2013-01-26 08:33:00,
2013-01-26 03:38:00,7.0,5.0,-100.00,North,-999,-999.0,-999.0,94,-99.99,,,-99.99,,2013-01-26 08:38:00,
2013-01-26 03:43:00,7.0,5.2,-100.00,North,-999,-999.0,-999.0,95,-99.99,,,-99.99,,2013-01-26 08:43:00,
2013-01-26 03:48:00,7.0,5.0,-100.00,North,-999,-999.0,-999.0,94,-99.99,,,-99.99,,2013-01-26 08:48:00,
2013-01-26 03:53:00,6.8,4.6,-100.00,North,-999,-999.0,-999.0,94,-99.99,,,-99.99,,2013-01-26 08:53:00,
2013-01-26 03:58:00,6.8,4.4,-100.00,North,-999,-999.0,-999.0,93,-99.99,,,-99.99,,2013-01-26 08:58:00,
2013-01-26 04:03:00,6.8,4.5,-100.00,North,-999,-999.0,-999.0,93,-99.99,,,-99.99,,2013-01-26 09:03:00,
2013-01-26 04:08:00,6.6,4.6,-100.00,North,-999,-999.0,-999.0,94,-99.99,,,-99.99,,2013-01-26 09:08:00,
2013-01-26 04:13:00,6.4,4.0,-100.00,North,-999,-999.0,-999.0,93,-99.99,,,-99.99,,2013-01-26 09:13:00,
2013-01-26 04:18:00,6.4,3.9,-100.00,North,-999,-999.0,-999.0,93,-99.99,,,-99.99,,2013-01-26 09:18:00,
2013-01-26 04:23:00,6.4,4.3,-100.00,North,-999,-999.0,-999.0,94,-99.99,,,-99.99,,2013-01-26 09:23:00,
2013-01-26 04:28:00,6.3,4.1,-100.00,North,-999,-999.0,-999.0,93,-99.99,,,-99.99,,2013-01-26 09:28:00,
2013-01-26 04:33:00,6.3,4.4,-100.00,North,-999,-999.0,-999.0,94,-99.99,,,-99.99,,2013-01-26 09:33:00,
2013-01-26 04:38:00,6.1,4.2,-100.00,North,-999,-999.0,-999.0,94,-99.99,,,-99.99,,2013-01-26 09:38:00,
2013-01-26 04:43:00,5.9,4.3,-100.00,North,-999,-999.0,-999.0,95,-99.99,,,-99.99,,2013-01-26 09:43:00,
2013-01-26 04:48:00,6.1,4.5,-100.00,North,-999,-999.0,-999.0,95,-99.99,,,-99.99,,2013-01-26 09:48:00,
2013-01-26 04:53:00,6.1,4.9,-100.00,North,-999,-999.0,-999.0,96,-99.99,,,-99.99,,2013-01-26 09:53:00,
2013-01-26 04:58:00,6.1,5.2,-100.00,North,-999,-999.0,-999.0,97,-99.99,,,-99.99,,2013-01-26 09:58:00,
2013-01-26 05:03:00,6.3,6.1,-100.00,North,-999,-999.0,-999.0,99,-99.99,,,-99.99,,2013-01-26 10:03:00,
2013-01-26 05:10:00,6.4,6.3,-100.00,North,-999,-999.0,-999.0,99,-99.99,,,-99.99,,2013-01-26 10:10:00,
2013-01-26 05:15:00,6.4,5.8,-100.00,North,-999,-999.0,-999.0,98,-99.99,,,-99.99,,2013-01-26 10:15:00,
2013-01-26 05:20:00,6.6,5.9,-100.00,North,-999,-999.0,-999.0,98,-99.99,,,-99.99,,2013-01-26 10:20:00,
2013-01-26 05:25:00,6.6,5.8,-100.00,North,-999,-999.0,-999.0,97,-99.99,,,-99.99,,2013-01-26 10:25:00,
2013-01-26 05:30:00,6.8,6.0,-100.00,North,-999,-999.0,-999.0,97,-99.99,,,-99.99,,2013-01-26 10:30:00,
2013-01-26 05:35:00,6.8,5.6,-100.00,North,-999,-999.0,-999.0,96,-99.99,,,-99.99,,2013-01-26 10:35:00,
2013-01-26 05:40:00,6.8,5.4,-100.00,North,-999,-999.0,-999.0,96,-99.99,,,-99.99,,2013-01-26 10:40:00,
2013-01-26 05:45:00,6.6,4.8,-100.00,North,-999,-999.0,-999.0,94,-99.99,,,-99.99,,2013-01-26 10:45:00,
2013-01-26 05:50:00,6.6,4.7,-100.00,North,-999,-999.0,-999.0,94,-99.99,,,-99.99,,2013-01-26 10:50:00,
2013-01-26 05:55:00,6.4,4.1,-100.00,North,-999,-999.0,-999.0,93,-99.99,,,-99.99,,2013-01-26 10:55:00,
2013-01-26 06:00:00,6.4,4.4,-100.00,North,-999,-999.0,-999.0,94,-99.99,,,-99.99,,2013-01-26 11:00:00,
2013-01-26 06:05:00,6.3,4.0,-100.00,North,-999,-999.0,-999.0,93,-99.99,,,-99.99,,2013-01-26 11:05:00,
2013-01-26 06:10:00,6.3,3.6,-100.00,North,-999,-999.0,-999.0,92,-99.99,,,-99.99,,2013-01-26 11:10:00,
2013-01-26 06:15:00,6.1,3.3,-100.00,North,-999,-999.0,-999.0,92,-99.99,,,-99.99,,2013-01-26 11:15:00,
2013-01-26 06:20:00,5.9,3.1,-100.00,North,-999,-999.0,-999.0,92,-99.99,,,-99.99,,2013-01-26 11:20:00,
2013-01-26 06:25:00,5.7,3.3,-100.00,North,-999,-999.0,-999.0,93,-99.99,,,-99.99,,2013-01-26 11:25:00,
2013-01-26 06:30:00,5.7,3.3,-100.00,North,-999,-999.0,-999.0,93,-99.99,,,-99.99,,2013-01-26 11:30:00,
2013-01-26 06:35:00,5.7,3.4,-100.00,North,-999,-999.0,-999.0,93,-99.99,,,-99.99,,2013-01-26 11:35:00,
2013-01-26 06:40:00,5.7,3.2,-100.00,North,-999,-999.0,-999.0,92,-99.99,,,-99.99,,2013-01-26 11:40:00,
2013-01-26 06:45:00,5.7,3.2,-100.00,North,-999,-999.0,-999.0,93,-99.99,,,-99.99,,2013-01-26 11:45:00,
2013-01-26 06:50:00,5.9,3.6,-100.00,North,-999,-999.0,-999.0,93,-99.99,,,-99.99,,2013-01-26 11:50:00,
2013-01-26 06:55:00,5.9,4.1,-100.00,North,-999,-999.0,-999.0,95,-99.99,,,-99.99,,2013-01-26 11:55:00,
2013-01-26 07:00:00,5.9,3.7,-100.00,North,-999,-999.0,-999.0,93,-99.99,,,-99.99,,2013-01-26 12:00:00,
2013-01-26 07:05:00,5.9,3.7,-100.00,North,-999,-999.0,-999.0,93,-99.99,,,-99.99,,2013-01-26 12:05:00,
2013-01-26 07:10:00,5.7,3.6,-100.00,North,-999,-999.0,-999.0,94,-99.99,,,-99.99,,2013-01-26 12:10:00,
2013-01-26 07:15:00,5.7,2.8,-100.00,North,-999,-999.0,-999.0,91,-99.99,,,-99.99,,2013-01-26 12:15:00,
2013-01-26 07:20:00,5.5,2.7,-100.00,North,-999,-999.0,-999.0,92,-99.99,,,-99.99,,2013-01-26 12:20:00,
2013-01-26 07:25:00,5.7,2.9,-100.00,North,-999,-999.0,-999.0,92,-99.99,,,-99.99,,2013-01-26 12:25:00,
2013-01-26 07:30:00,5.9,3.1,-100.00,North,-999,-999.0,-999.0,92,-99.99,,,-99.99,,2013-01-26 12:30:00,
2013-01-26 07:36:00,5.9,2.8,-100.00,North,-999,-999.0,-999.0,91,-99.99,,,-99.99,,2013-01-26 12:36:00,
2013-01-26 07:41:00,5.9,2.4,-100.00,North,-999,-999.0,-999.0,90,-99.99,,,-99.99,,2013-01-26 12:41:00,
2013-01-26 07:46:00,5.9,2.3,-100.00,North,-999,-999.0,-999.0,90,-99.99,,,-99.99,,2013-01-26 12:46:00,
2013-01-26 07:51:00,5.9,2.2,-100.00,North,-999,-999.0,-999.0,89,-99.99,,,-99.99,,2013-01-26 12:51:00,
2013-01-26 07:56:00,6.1,2.9,-100.00,North,-999,-999.0,-999.0,91,-99.99,,,-99.99,,2013-01-26 12:56:00,
2013-01-26 08:01:00,6.3,3.2,-100.00,North,-999,-999.0,-999.0,91,-99.99,,,-99.99,,2013-01-26 13:01:00,
2013-01-26 08:06:00,6.6,3.3,-100.00,North,-999,-999.0,-999.0,90,-99.99,,,-99.99,,2013-01-26 13:06:00,
2013-01-26 08:11:00,7.0,3.7,-100.00,North,-999,-999.0,-999.0,90,-99.99,,,-99.99,,2013-01-26 13:11:00,
2013-01-26 08:16:00,7.3,4.0,-100.00,North,-999,-999.0,-999.0,90,-99.99,,,-99.99,,2013-01-26 13:16:00,
2013-01-26 08:21:00,7.5,4.2,-100.00,North,-999,-999.0,-999.0,90,-99.99,,,-99.99,,2013-01-26 13:21:00,
2013-01-26 08:26:00,7.9,3.8,-100.00,North,-999,-999.0,-999.0,88,-99.99,,,-99.99,,2013-01-26 13:26:00,
2013-01-26 08:31:00,8.1,4.2,-100.00,North,-999,-999.0,-999.0,89,-99.99,,,-99.99,,2013-01-26 13:31:00,
2013-01-26 08:36:00,8.6,5.1,-100.00,North,-999,-999.0,-999.0,90,-99.99,,,-99.99,,2013-01-26 13:36:00,
2013-01-26 08:41:00,9.0,5.1,-100.00,North,-999,-999.0,-999.0,89,-99.99,,,-99.99,,2013-01-26 13:41:00,
2013-01-26 08:46:00,9.3,5.3,-100.00,North,-999,-999.0,-999.0,88,-99.99,,,-99.99,,2013-01-26 13:46:00,
2013-01-26 08:51:00,9.5,5.6,-100.00,North,-999,-999.0,-999.0,89,-99.99,,,-99.99,,2013-01-26 13:51:00,
2013-01-26 08:56:00,9.9,4.2,-100.00,North,-999,-999.0,-999.0,84,-99.99,,,-99.99,,2013-01-26 13:56:00,
2013-01-26 09:03:00,10.2,1.1,-100.00,North,-999,-999.0,-999.0,74,-99.99,,,-99.99,,2013-01-26 14:03:00,
2013-01-26 09:08:00,10.6,2.2,-100.00,North,-999,-999.0,-999.0,76,-99.99,,,-99.99,,2013-01-26 14:08:00,
2013-01-26 09:13:00,10.9,1.8,-100.00,North,-999,-999.0,-999.0,74,-99.99,,,-99.99,,2013-01-26 14:13:00,
2013-01-26 09:18:00,11.1,0.2,-100.00,North,-999,-999.0,-999.0,69,-99.99,,,-99.99,,2013-01-26 14:18:00,
2013-01-26 09:23:00,11.7,1.4,-100.00,North,-999,-999.0,-999.0,71,-99.99,,,-99.99,,2013-01-26 14:23:00,
2013-01-26 09:28:00,11.8,0.5,-100.00,North,-999,-999.0,-999.0,68,-99.99,,,-99.99,,2013-01-26 14:28:00,
2013-01-26 09:33:00,12.2,0.6,-100.00,North,-999,-999.0,-999.0,67,-99.99,,,-99.99,,2013-01-26 14:33:00,
2013-01-26 09:38:00,12.2,-0.3,-100.00,North,-999,-999.0,-999.0,65,-99.99,,,-99.99,,2013-01-26 14:38:00,
2013-01-26 09:43:00,12.6,-1.1,-100.00,North,-999,-999.0,-999.0,62,-99.99,,,-99.99,,2013-01-26 14:43:00,
2013-01-26 09:48:00,12.9,-0.7,-100.00,North,-999,-999.0,-999.0,62,-99.99,,,-99.99,,2013-01-26 14:48:00,
2013-01-26 09:53:00,13.1,0.4,-100.00,North,-999,-999.0,-999.0,64,-99.99,,,-99.99,,2013-01-26 14:53:00,
2013-01-26 09:58:00,13.6,0.8,-100.00,North,-999,-999.0,-999.0,64,-99.99,,,-99.99,,2013-01-26 14:58:00,
2013-01-26 10:03:00,13.6,-0.9,-100.00,North,-999,-999.0,-999.0,59,-99.99,,,-99.99,,2013-01-26 15:03:00,
2013-01-26 10:08:00,13.6,-0.1,-100.00,North,-999,-999.0,-999.0,61,-99.99,,,-99.99,,2013-01-26 15:08:00,
2013-01-26 10:13:00,13.8,-0.3,-100.00,North,-999,-999.0,-999.0,60,-99.99,,,-99.99,,2013-01-26 15:13:00,
2013-01-26 10:18:00,13.8,-0.6,-100.00,North,-999,-999.0,-999.0,59,-99.99,,,-99.99,,2013-01-26 15:18:00,
2013-01-26 10:23:00,14.2,0.0,-100.00,North,-999,-999.0,-999.0,60,-99.99,,,-99.99,,2013-01-26 15:23:00,
2013-01-26 10:28:00,14.5,-0.3,-100.00,North,-999,-999.0,-999.0,58,-99.99,,,-99.99,,2013-01-26 15:28:00,
2013-01-26 10:33:00,14.5,-0.3,-100.00,North,-999,-999.0,-999.0,58,-99.99,,,-99.99,,2013-01-26 15:33:00,
2013-01-26 10:38:00,14.9,0.0,-100.00,North,-999,-999.0,-999.0,58,-99.99,,,-99.99,,2013-01-26 15:38:00,
2013-01-26 10:43:00,15.1,-1.5,-100.00,North,-999,-999.0,-999.0,53,-99.99,,,-99.99,,2013-01-26 15:43:00,
2013-01-26 10:48:00,15.4,-0.3,-100.00,North,-999,-999.0,-999.0,56,-99.99,,,-99.99,,2013-01-26 15:48:00,
2013-01-26 10:53:00,15.3,-1.0,-100.00,North,-999,-999.0,-999.0,54,-99.99,,,-99.99,,2013-01-26 15:53:00,
2013-01-26 10:58:00,15.4,-0.8,-100.00,North,-999,-999.0,-999.0,54,-99.99,,,-99.99,,2013-01-26 15:58:00,
2013-01-26 11:03:00,15.6,-0.8,-100.00,North,-999,-999.0,-999.0,54,-99.99,,,-99.99,,2013-01-26 16:03:00,
2013-01-26 11:08:00,16.0,-0.3,-100.00,North,-999,-999.0,-999.0,54,-99.99,,,-99.99,,2013-01-26 16:08:00,
2013-01-26 11:13:00,16.0,-1.7,-100.00,North,-999,-999.0,-999.0,50,-99.99,,,-99.99,,2013-01-26 16:13:00,
2013-01-26 11:18:00,16.2,-1.5,-100.00,North,-999,-999.0,-999.0,50,-99.99,,,-99.99,,2013-01-26 16:18:00,
2013-01-26 11:23:00,16.3,-99.9,-100.00,North,-999,-999.0,-999.0,48,-99.99,,,-99.99,,2013-01-26 16:23:00,
2013-01-26 11:28:00,16.7,-99.9,-100.00,North,-999,-999.0,-999.0,48,-99.99,,,-99.99,,2013-01-26 16:28:00,
2013-01-26 11:33:00,16.7,-99.9,-100.00,North,-999,-999.0,-999.0,46,-99.99,,,-99.99,,2013-01-26 16:33:00,
2013-01-26 11:38:00,17.1,-99.9,-100.00,North,-999,-999.0,-999.0,47,-99.99,,,-99.99,,2013-01-26 16:38:00,
2013-01-26 11:43:00,17.1,-99.9,-100.00,North,-999,-999.0,-999.0,42,-99.99,,,-99.99,,2013-01-26 16:43:00,
2013-01-26 11:48:00,17.4,-99.9,-100.00,North,-999,-999.0,-999.0,43,-99.99,,,-99.99,,2013-01-26 16:48:00,
2013-01-26 11:53:00,17.6,-99.9,-100.00,North,-999,-999.0,-999.0,42,-99.99,,,-99.99,,2013-01-26 16:53:00,
2013-01-26 11:58:00,17.6,-99.9,-100.00,North,-999,-999.0,-999.0,41,-99.99,,,-99.99,,2013-01-26 16:58:00,
2013-01-26 12:03:00,17.8,-99.9,-100.00,North,-999,-999.0,-999.0,40,-99.99,,,-99.99,,2013-01-26 17:03:00,
2013-01-26 12:08:00,17.4,-99.9,-100.00,North,-999,-999.0,-999.0,36,-99.99,,,-99.99,,2013-01-26 17:08:00,
2013-01-26 12:13:00,18.0,-99.9,-100.00,North,-999,-999.0,-999.0,38,-99.99,,,-99.99,,2013-01-26 17:13:00,
2013-01-26 12:21:00,18.7,-99.9,-100.00,North,-999,-999.0,-999.0,37,-99.99,,,-99.99,,2013-01-26 17:21:00,
2013-01-26 12:26:00,19.0,-99.9,-100.00,North,-999,-999.0,-999.0,36,-99.99,,,-99.99,,2013-01-26 17:26:00,
2013-01-26 12:31:00,19.0,-99.9,-100.00,North,-999,-999.0,-999.0,35,-99.99,,,-99.99,,2013-01-26 17:31:00,
2013-01-26 12:36:00,19.2,-99.9,-100.00,North,-999,-999.0,-999.0,34,-99.99,,,-99.99,,2013-01-26 17:36:00,
2013-01-26 12:43:00,19.4,-99.9,-100.00,North,-999,-999.0,-999.0,33,-99.99,,,-99.99,,2013-01-26 17:43:00,
2013-01-26 12:48:00,19.4,-99.9,-100.00,North,-999,-999.0,-999.0,32,-99.99,,,-99.99,,2013-01-26 17:48:00,
2013-01-26 12:53:00,19.4,-99.9,-100.00,North,-999,-999.0,-999.0,31,-99.99,,,-99.99,,2013-01-26 17:53:00,
2013-01-26 12:58:00,19.8,-99.9,-100.00,North,-999,-999.0,-999.0,31,-99.99,,,-99.99,,2013-01-26 17:58:00,
2013-01-26 13:03:00,20.1,-99.9,-100.00,North,-999,-999.0,-999.0,32,-99.99,,,-99.99,,2013-01-26 18:03:00,
2013-01-26 13:08:00,19.8,-99.9,-100.00,North,-999,-999.0,-999.0,30,-99.99,,,-99.99,,2013-01-26 18:08:00,
2013-01-26 13:13:00,20.1,-99.9,-100.00,North,-999,-999.0,-999.0,32,-99.99,,,-99.99,,2013-01-26 18:13:00,
2013-01-26 13:18:00,20.5,-99.9,-100.00,North,-999,-999.0,-999.0,32,-99.99,,,-99.99,,2013-01-26 18:18:00,
2013-01-26 13:23:00,20.5,-99.9,-100.00,North,-999,-999.0,-999.0,32,-99.99,,,-99.99,,2013-01-26 18:23:00,
2013-01-26 13:28:00,20.1,-99.9,-100.00,North,-999,-999.0,-999.0,30,-99.99,,,-99.99,,2013-01-26 18:28:00,
2013-01-26 13:33:00,20.1,-99.9,-100.00,North,-999,-999.0,-999.0,31,-99.99,,,-99.99,,2013-01-26 18:33:00,
2013-01-26 13:38:00,20.5,-99.9,-100.00,North,-999,-999.0,-999.0,32,-99.99,,,-99.99,,2013-01-26 18:38:00,
2013-01-26 13:44:00,20.5,-99.9,-100.00,North,-999,-999.0,-999.0,32,-99.99,,,-99.99,,2013-01-26 18:44:00,
2013-01-26 13:49:00,20.3,-99.9,-100.00,North,-999,-999.0,-999.0,32,-99.99,,,-99.99,,2013-01-26 18:49:00,
2013-01-26 13:54:00,20.1,-99.9,-100.00,North,-999,-999.0,-999.0,33,-99.99,,,-99.99,,2013-01-26 18:54:00,
2013-01-26 13:59:00,20.1,-99.9,-100.00,North,-999,-999.0,-999.0,35,-99.99,,,-99.99,,2013-01-26 18:59:00,
2013-01-26 14:04:00,20.1,-99.9,-100.00,North,-999,-999.0,-999.0,36,-99.99,,,-99.99,,2013-01-26 19:04:00,
2013-01-26 14:09:00,19.9,-99.9,-100.00,North,-999,-999.0,-999.0,37,-99.99,,,-99.99,,2013-01-26 19:09:00,
2013-01-26 14:14:00,20.1,-99.9,-100.00,North,-999,-999.0,-999.0,38,-99.99,,,-99.99,,2013-01-26 19:14:00,
2013-01-26 14:19:00,19.9,-99.9,-100.00,North,-999,-999.0,-999.0,37,-99.99,,,-99.99,,2013-01-26 19:19:00,
2013-01-26 14:24:00,19.9,-99.9,-100.00,North,-999,-999.0,-999.0,38,-99.99,,,-99.99,,2013-01-26 19:24:00,
2013-01-26 14:29:00,19.8,-99.9,-100.00,North,-999,-999.0,-999.0,37,-99.99,,,-99.99,,2013-01-26 19:29:00,
2013-01-26 14:34:00,19.9,-99.9,-100.00,North,-999,-999.0,-999.0,37,-99.99,,,-99.99,,2013-01-26 19:34:00,
2013-01-26 14:39:00,19.9,-99.9,-100.00,North,-999,-999.0,-999.0,38,-99.99,,,-99.99,,2013-01-26 19:39:00,
2013-01-26 14:46:00,20.1,-99.9,-100.00,North,-999,-999.0,-999.0,37,-99.99,,,-99.99,,2013-01-26 19:46:00,
2013-01-26 14:51:00,20.1,-99.9,-100.00,North,-999,-999.0,-999.0,38,-99.99,,,-99.99,,2013-01-26 19:51:00,
2013-01-26 14:56:00,20.1,-99.9,-100.00,North,-999,-999.0,-999.0,36,-99.99,,,-99.99,,2013-01-26 19:56:00,
2013-01-26 15:01:00,19.9,-99.9,-100.00,North,-999,-999.0,-999.0,37,-99.99,,,-99.99,,2013-01-26 20:01:00,
2013-01-26 15:06:00,19.9,-99.9,-100.00,North,-999,-999.0,-999.0,38,-99.99,,,-99.99,,2013-01-26 20:06:00,
2013-01-26 15:11:00,19.9,-99.9,-100.00,North,-999,-999.0,-999.0,37,-99.99,,,-99.99,,2013-01-26 20:11:00,
2013-01-26 15:16:00,19.6,-99.9,-100.00,North,-999,-999.0,-999.0,38,-99.99,,,-99.99,,2013-01-26 20:16:00,
2013-01-26 15:21:00,19.6,-99.9,-100.00,North,-999,-999.0,-999.0,38,-99.99,,,-99.99,,2013-01-26 20:21:00,
2013-01-26 15:26:00,19.6,-99.9,-100.00,North,-999,-999.0,-999.0,39,-99.99,,,-99.99,,2013-01-26 20:26:00,
2013-01-26 15:31:00,19.4,-99.9,-100.00,North,-999,-999.0,-999.0,39,-99.99,,,-99.99,,2013-01-26 20:31:00,
2013-01-26 15:36:00,19.4,-99.9,-100.00,North,-999,-999.0,-999.0,38,-99.99,,,-99.99,,2013-01-26 20:36:00,
2013-01-26 15:41:00,19.0,-99.9,-100.00,North,-999,-999.0,-999.0,37,-99.99,,,-99.99,,2013-01-26 20:41:00,
2013-01-26 15:46:00,19.0,-99.9,-100.00,North,-999,-999.0,-999.0,38,-99.99,,,-99.99,,2013-01-26 20:46:00,
2013-01-26 15:51:00,18.9,-99.9,-100.00,North,-999,-999.0,-999.0,39,-99.99,,,-99.99,,2013-01-26 20:51:00,
2013-01-26 15:56:00,18.9,-99.9,-100.00,North,-999,-999.0,-999.0,39,-99.99,,,-99.99,,2013-01-26 20:56:00,
2013-01-26 16:01:00,18.7,-99.9,-100.00,North,-999,-999.0,-999.0,37,-99.99,,,-99.99,,2013-01-26 21:01:00,
2013-01-26 16:06:00,18.5,-99.9,-100.00,North,-999,-999.0,-999.0,38,-99.99,,,-99.99,,2013-01-26 21:06:00,
2013-01-26 16:11:00,18.3,-99.9,-100.00,North,-999,-999.0,-999.0,38,-99.99,,,-99.99,,2013-01-26 21:11:00,
2013-01-26 16:16:00,18.1,-99.9,-100.00,North,-999,-999.0,-999.0,37,-99.99,,,-99.99,,2013-01-26 21:16:00,
2013-01-26 16:21:00,18.0,-99.9,-100.00,North,-999,-999.0,-999.0,37,-99.99,,,-99.99,,2013-01-26 21:21:00,
2013-01-26 16:26:00,17.6,-99.9,-100.00,North,-999,-999.0,-999.0,38,-99.99,,,-99.99,,2013-01-26 21:26:00,
2013-01-26 16:31:00,17.4,-99.9,-100.00,North,-999,-999.0,-999.0,38,-99.99,,,-99.99,,2013-01-26 21:31:00,
2013-01-26 16:36:00,17.1,-99.9,-100.00,North,-999,-999.0,-999.0,37,-99.99,,,-99.99,,2013-01-26 21:36:00,
2013-01-26 16:41:00,16.7,-99.9,-100.00,North,-999,-999.0,-999.0,39,-99.99,,,-99.99,,2013-01-26 21:41:00,
2013-01-26 16:46:00,16.5,-99.9,-100.00,North,-999,-999.0,-999.0,39,-99.99,,,-99.99,,2013-01-26 21:46:00,
2013-01-26 16:54:00,16.3,-99.9,-100.00,North,-999,-999.0,-999.0,39,-99.99,,,-99.99,,2013-01-26 21:54:00,
2013-01-26 16:59:00,16.0,-99.9,-100.00,North,-999,-999.0,-999.0,40,-99.99,,,-99.99,,2013-01-26 21:59:00,
2013-01-26 17:04:00,15.8,-99.9,-100.00,North,-999,-999.0,-999.0,39,-99.99,,,-99.99,,2013-01-26 22:04:00,
2013-01-26 17:09:00,15.8,-99.9,-100.00,North,-999,-999.0,-999.0,39,-99.99,,,-99.99,,2013-01-26 22:09:00,
2013-01-26 17:14:00,15.4,-99.9,-100.00,North,-999,-999.0,-999.0,39,-99.99,,,-99.99,,2013-01-26 22:14:00,
2013-01-26 17:19:00,15.4,-99.9,-100.00,North,-999,-999.0,-999.0,39,-99.99,,,-99.99,,2013-01-26 22:19:00,
2013-01-26 17:24:00,15.4,-99.9,-100.00,North,-999,-999.0,-999.0,38,-99.99,,,-99.99,,2013-01-26 22:24:00,
2013-01-26 17:31:00,15.3,-99.9,-100.00,North,-999,-999.0,-999.0,38,-99.99,,,-99.99,,2013-01-26 22:31:00,
2013-01-26 17:36:00,15.3,-99.9,-100.00,North,-999,-999.0,-999.0,38,-99.99,,,-99.99,,2013-01-26 22:36:00,
2013-01-26 17:41:00,15.3,-99.9,-100.00,North,-999,-999.0,-999.0,37,-99.99,,,-99.99,,2013-01-26 22:41:00,
2013-01-26 17:46:00,15.1,-99.9,-100.00,North,-999,-999.0,-999.0,38,-99.99,,,-99.99,,2013-01-26 22:46:00,
2013-01-26 17:51:00,15.1,-99.9,-100.00,North,-999,-999.0,-999.0,38,-99.99,,,-99.99,,2013-01-26 22:51:00,
2013-01-26 17:56:00,15.1,-99.9,-100.00,North,-999,-999.0,-999.0,38,-99.99,,,-99.99,,2013-01-26 22:56:00,
2013-01-26 18:01:00,15.1,-99.9,-100.00,North,-999,-999.0,-999.0,39,-99.99,,,-99.99,,2013-01-26 23:01:00,
2013-01-26 18:06:00,14.9,-99.9,-100.00,North,-999,-999.0,-999.0,39,-99.99,,,-99.99,,2013-01-26 23:06:00,
2013-01-26 18:11:00,14.9,-99.9,-100.00,North,-999,-999.0,-999.0,40,-99.99,,,-99.99,,2013-01-26 23:11:00,
2013-01-26 18:16:00,14.9,-99.9,-100.00,North,-999,-999.0,-999.0,41,-99.99,,,-99.99,,2013-01-26 23:16:00,
2013-01-26 18:21:00,14.7,-99.9,-100.00,North,-999,-999.0,-999.0,41,-99.99,,,-99.99,,2013-01-26 23:21:00,
2013-01-26 18:26:00,14.7,-99.9,-100.00,North,-999,-999.0,-999.0,42,-99.99,,,-99.99,,2013-01-26 23:26:00,
2013-01-26 18:31:00,14.5,-99.9,-100.00,North,-999,-999.0,-999.0,43,-99.99,,,-99.99,,2013-01-26 23:31:00,
2013-01-26 18:36:00,14.4,-99.9,-100.00,North,-999,-999.0,-999.0,42,-99.99,,,-99.99,,2013-01-26 23:36:00,
2013-01-26 18:41:00,14.2,-99.9,-100.00,North,-999,-999.0,-999.0,43,-99.99,,,-99.99,,2013-01-26 23:41:00,
2013-01-26 18:46:00,14.0,-99.9,-100.00,North,-999,-999.0,-999.0,44,-99.99,,,-99.99,,2013-01-26 23:46:00,
2013-01-26 18:51:00,14.0,-99.9,-100.00,North,-999,-999.0,-999.0,44,-99.99,,,-99.99,,2013-01-26 23:51:00,
2013-01-26 18:56:00,14.0,-99.9,-100.00,North,-999,-999.0,-999.0,44,-99.99,,,-99.99,,2013-01-26 23:56:00,
2013-01-26 19:01:00,14.0,-99.9,-100.00,North,-999,-999.0,-999.0,45,-99.99,,,-99.99,,2013-01-27 00:01:00,
2013-01-26 19:09:00,13.8,-99.9,-100.00,North,-999,-999.0,-999.0,45,-99.99,,,-99.99,,2013-01-27 00:09:00,
2013-01-26 19:14:00,13.5,-99.9,-100.00,North,-999,-999.0,-999.0,45,-99.99,,,-99.99,,2013-01-27 00:14:00,
2013-01-26 19:19:00,13.3,-99.9,-100.00,North,-999,-999.0,-999.0,45,-99.99,,,-99.99,,2013-01-27 00:19:00,
2013-01-26 19:24:00,13.3,-99.9,-100.00,North,-999,-999.0,-999.0,46,-99.99,,,-99.99,,2013-01-27 00:24:00,
2013-01-26 19:29:00,12.9,-99.9,-100.00,North,-999,-999.0,-999.0,47,-99.99,,,-99.99,,2013-01-27 00:29:00,
2013-01-26 19:34:00,12.9,-99.9,-100.00,North,-999,-999.0,-999.0,46,-99.99,,,-99.99,,2013-01-27 00:34:00,
2013-01-26 19:39:00,12.7,-99.9,-100.00,North,-999,-999.0,-999.0,47,-99.99,,,-99.99,,2013-01-27 00:39:00,
2013-01-26 19:44:00,12.6,-99.9,-100.00,North,-999,-999.0,-999.0,46,-99.99,,,-99.99,,2013-01-27 00:44:00,
2013-01-26 19:49:00,12.4,-99.9,-100.00,North,-999,-999.0,-999.0,46,-99.99,,,-99.99,,2013-01-27 00:49:00,
2013-01-26 19:54:00,12.4,-99.9,-100.00,North,-999,-999.0,-999.0,46,-99.99,,,-99.99,,2013-01-27 00:54:00,
2013-01-26 19:59:00,12.4,-99.9,-100.00,North,-999,-999.0,-999.0,46,-99.99,,,-99.99,,2013-01-27 00:59:00,
2013-01-26 20:04:00,12.2,-99.9,-100.00,North,-999,-999.0,-999.0,46,-99.99,,,-99.99,,2013-01-27 01:04:00,
2013-01-26 20:09:00,12.0,-99.9,-100.00,North,-999,-999.0,-999.0,45,-99.99,,,-99.99,,2013-01-27 01:09:00,
2013-01-26 20:14:00,12.2,-99.9,-100.00,North,-999,-999.0,-999.0,44,-99.99,,,-99.99,,2013-01-27 01:14:00,
2013-01-26 20:19:00,12.6,-99.9,-100.00,North,-999,-999.0,-999.0,43,-99.99,,,-99.99,,2013-01-27 01:19:00,
2013-01-26 20:24:00,12.7,-99.9,-100.00,North,-999,-999.0,-999.0,42,-99.99,,,-99.99,,2013-01-27 01:24:00,
2013-01-26 20:29:00,12.7,-99.9,-100.00,North,-999,-999.0,-999.0,40,-99.99,,,-99.99,,2013-01-27 01:29:00,
2013-01-26 20:34:00,12.7,-99.9,-100.00,North,-999,-999.0,-999.0,41,-99.99,,,-99.99,,2013-01-27 01:34:00,
2013-01-26 20:39:00,12.7,-99.9,-100.00,North,-999,-999.0,-999.0,40,-99.99,,,-99.99,,2013-01-27 01:39:00,
2013-01-26 20:44:00,12.6,-99.9,-100.00,North,-999,-999.0,-999.0,41,-99.99,,,-99.99,,2013-01-27 01:44:00,
2013-01-26 20:49:00,12.6,-99.9,-100.00,North,-999,-999.0,-999.0,41,-99.99,,,-99.99,,2013-01-27 01:49:00,
2013-01-26 20:54:00,12.4,-99.9,-100.00,North,-999,-999.0,-999.0,42,-99.99,,,-99.99,,2013-01-27 01:54:00,
2013-01-26 20:59:00,12.2,-99.9,-100.00,North,-999,-999.0,-999.0,43,-99.99,,,-99.99,,2013-01-27 01:59:00,
2013-01-26 21:04:00,12.6,-99.9,-100.00,North,-999,-999.0,-999.0,41,-99.99,,,-99.99,,2013-01-27 02:04:00,
2013-01-26 21:09:00,12.6,-99.9,-100.00,North,-999,-999.0,-999.0,41,-99.99,,,-99.99,,2013-01-27 02:09:00,
2013-01-26 21:14:00,12.4,-99.9,-100.00,North,-999,-999.0,-999.0,41,-99.99,,,-99.99,,2013-01-27 02:14:00,
2013-01-26 21:19:00,12.2,-99.9,-100.00,North,-999,-999.0,-999.0,42,-99.99,,,-99.99,,2013-01-27 02:19:00,
2013-01-26 21:24:00,12.2,-99.9,-100.00,North,-999,-999.0,-999.0,42,-99.99,,,-99.99,,2013-01-27 02:24:00,
2013-01-26 21:29:00,12.2,-99.9,-100.00,North,-999,-999.0,-999.0,42,-99.99,,,-99.99,,2013-01-27 02:29:00,
2013-01-26 21:34:00,12.2,-99.9,-100.00,North,-999,-999.0,-999.0,43,-99.99,,,-99.99,,2013-01-27 02:34:00,
2013-01-26 21:39:00,12.0,-99.9,-100.00,North,-999,-999.0,-999.0,44,-99.99,,,-99.99,,2013-01-27 02:39:00,
2013-01-26 21:44:00,12.2,-99.9,-100.00,North,-999,-999.0,-999.0,43,-99.99,,,-99.99,,2013-01-27 02:44:00,
2013-01-26 21:49:00,12.2,-99.9,-100.00,North,-999,-999.0,-999.0,44,-99.99,,,-99.99,,2013-01-27 02:49:00,
2013-01-26 21:54:00,12.2,-99.9,-100.00,North,-999,-999.0,-999.0,44,-99.99,,,-99.99,,2013-01-27 02:54:00,
2013-01-26 21:59:00,12.0,-99.9,-100.00,North,-999,-999.0,-999.0,43,-99.99,,,-99.99,,2013-01-27 02:59:00,
2013-01-26 22:04:00,12.0,-99.9,-100.00,North,-999,-999.0,-999.0,44,-99.99,,,-99.99,,2013-01-27 03:04:00,
2013-01-26 22:09:00,11.8,-99.9,-100.00,North,-999,-999.0,-999.0,45,-99.99,,,-99.99,,2013-01-27 03:09:00,
2013-01-26 22:14:00,11.8,-99.9,-100.00,North,-999,-999.0,-999.0,45,-99.99,,,-99.99,,2013-01-27 03:14:00,
2013-01-26 22:19:00,11.8,-99.9,-100.00,North,-999,-999.0,-999.0,45,-99.99,,,-99.99,,2013-01-27 03:19:00,
2013-01-26 22:24:00,11.7,-99.9,-100.00,North,-999,-999.0,-999.0,44,-99.99,,,-99.99,,2013-01-27 03:24:00,
2013-01-26 22:29:00,11.7,-99.9,-100.00,North,-999,-999.0,-999.0,45,-99.99,,,-99.99,,2013-01-27 03:29:00,
2013-01-26 22:34:00,11.7,-99.9,-100.00,North,-999,-999.0,-999.0,44,-99.99,,,-99.99,,2013-01-27 03:34:00,
2013-01-26 22:39:00,11.5,-99.9,-100.00,North,-999,-999.0,-999.0,46,-99.99,,,-99.99,,2013-01-27 03:39:00,
2013-01-26 22:44:00,11.5,-99.9,-100.00,North,-999,-999.0,-999.0,46,-99.99,,,-99.99,,2013-01-27 03:44:00,
2013-01-26 22:49:00,11.5,-99.9,-100.00,North,-999,-999.0,-999.0,46,-99.99,,,-99.99,,2013-01-27 03:49:00,
2013-01-26 22:54:00,11.5,-99.9,-100.00,North,-999,-999.0,-999.0,46,-99.99,,,-99.99,,2013-01-27 03:54:00,
2013-01-26 22:59:00,11.5,-99.9,-100.00,North,-999,-999.0,-999.0,47,-99.99,,,-99.99,,2013-01-27 03:59:00,
2013-01-26 23:04:00,11.3,-99.9,-100.00,North,-999,-999.0,-999.0,47,-99.99,,,-99.99,,2013-01-27 04:04:00,
2013-01-26 23:09:00,11.3,-99.9,-100.00,North,-999,-999.0,-999.0,48,-99.99,,,-99.99,,2013-01-27 04:09:00,
2013-01-26 23:14:00,11.3,-99.9,-100.00,North,-999,-999.0,-999.0,47,-99.99,,,-99.99,,2013-01-27 04:14:00,
2013-01-26 23:19:00,11.1,-99.9,-100.00,North,-999,-999.0,-999.0,48,-99.99,,,-99.99,,2013-01-27 04:19:00,
2013-01-26 23:24:00,11.1,-99.9,-100.00,North,-999,-999.0,-999.0,48,-99.99,,,-99.99,,2013-01-27 04:24:00,
2013-01-26 23:29:00,10.9,-99.9,-100.00,North,-999,-999.0,-999.0,49,-99.99,,,-99.99,,2013-01-27 04:29:00,
2013-01-26 23:34:00,10.8,-99.9,-100.00,North,-999,-999.0,-999.0,49,-99.99,,,-99.99,,2013-01-27 04:34:00,
2013-01-26 23:39:00,10.8,-99.9,-100.00,North,-999,-999.0,-999.0,49,-99.99,,,-99.99,,2013-01-27 04:39:00,
2013-01-26 23:44:00,10.8,-7.1,-100.00,North,-999,-999.0,-999.0,50,-99.99,,,-99.99,,2013-01-27 04:44:00,
2013-01-26 23:49:00,10.8,-7.2,-100.00,North,-999,-999.0,-999.0,50,-99.99,,,-99.99,,2013-01-27 04:49:00,
2013-01-26 23:54:00,10.8,-7.1,-100.00,North,-999,-999.0,-999.0,50,-99.99,,,-99.99,,2013-01-27 04:54:00,
2013-01-26 23:59:00,10.8,-99.9,-100.00,North,-999,-999.0,-999.0,49,-99.99,,,-99.99,,2013-01-27 04:59:00,